עמוד ראשי
METAR-TAF:

METAR-TAF

שדות תעופה :

שדה התעופה הבינלאומי חלב

חאלב, סוריה

קו רוחב: 36-11N, קו אורך: 037-12E, גובה: 393מטר

תצפית מזג אוויר נוכחית

הדו"ח נערך לפני 53דקות, בשעה 12:00 UTC
רוח 10קשר מכיוון מערב/צפון-מערב
טמפרטורת 39 צלסיוס
לחות 24%
לחץ 1004 hPa
ראות 10 קילומטר או יותר
ללא עננים שבסיסם נמוך מ 5000 רגל או קומולונימבוס

METAR: OSAP 251200Z 30010KT CAVOK 39/15 Q1004

זמן: 15:53 (12:53 UTC)

תחזית

הדו"ח נערך לפני 53דקות, בשעה 12:00 UTC
תחזית בתוקף מ 25 ב 12 UTC עד 26 ב 12 UTC
רוח 8קשר מכיוון צפון/צפון-מערב
ראות 10 קילומטר או יותר
ללא עננים שבסיסם נמוך מ 5000 רגל או קומולונימבוס
זמנית מ -
25 ב 17 UTC עד 25 ב 22 UTC
רוח 15קשר מכיוון צפון/צפון-מערב

TAF: OSAP 251200Z 2512/2612 33008KT CAVOK TEMPO 2517/2522 33015KT

תצפיות ותחזיות מזג אוויר לגבי יותר מ- 4,000 שדות תעופה ברחבי העולם. דוחות METAR ו- TAF.

התחנות הזמינות מסומנות בנקודות צהובות ואדומות על גבי המפה.

העבר את העכבר לנקודה הצבעונית על מנת לראות את שם התחנה.

לאחר מכן, לחץ כדי לראות את תוכן ואת תחזיות מזג האוויר.

כדי לשנות את המפה: לחץ על הכפתורים הירוקים עם הפלוס השחור כדי להתקרב; על הכפתור הירוק עם המקף כדי להתרחק; או בחיצים הירוקים למפות סמוכות.


METAR-TAF: